Time;durP1;ratioP1;P1;durP2;ratioP2;P2;SDS_P1;SDS_P2;PMS_P1;PMS_P2;Temp;Humidity;BMP_temperature;BMP_pressure;BME280_temperature;BME280_humidity;BME280_pressure;Samples;Min_cycle;Max_cycle;Signal;HPM_P1;HPM_P2
2022/04/23 00:00:00;;;;;;;19.83;16.20;;;;;;;12.38;77.27;96761.03;4111559;28;20626;-83
2022/04/23 00:02:06;;;;;;;18.43;16.40;;;;;;;12.39;76.02;96756.63;4112880;28;20641;-82
2022/04/23 00:04:10;;;;;;;21.63;15.97;;;;;;;12.40;76.22;96763.50;4114137;28;21168;-83
2022/04/23 00:06:17;;;;;;;19.30;16.03;;;;;;;12.36;75.99;96759.53;4114726;28;21261;-83
2022/04/23 00:08:24;;;;;;;20.20;15.97;;;;;;;12.37;75.77;96761.16;4115059;28;20640;-83
2022/04/23 00:10:27;;;;;;;19.47;15.93;;;;;;;12.35;76.41;96763.13;4126881;28;20678;-83
2022/04/23 00:12:31;;;;;;;19.50;15.33;;;;;;;12.35;76.78;96771.78;4110692;28;20712;-83
2022/04/23 00:14:37;;;;;;;18.37;15.17;;;;;;;12.32;76.87;96766.84;4115681;28;20625;-83
2022/04/23 00:16:42;;;;;;;17.50;15.60;;;;;;;12.32;77.12;96761.63;4111016;28;20690;-83
2022/04/23 00:18:48;;;;;;;18.10;15.13;;;;;;;12.32;78.25;96769.44;4112665;28;20637;-82
2022/04/23 00:20:52;;;;;;;18.70;14.80;;;;;;;12.32;76.11;96764.22;4111930;28;20628;-83
2022/04/23 00:22:57;;;;;;;16.90;15.10;;;;;;;12.34;77.74;96766.69;4114117;28;20712;-83
2022/04/23 00:25:00;;;;;;;17.20;14.97;;;;;;;12.37;76.99;96763.78;4112966;28;20625;-85
2022/04/23 00:27:04;;;;;;;17.00;14.33;;;;;;;12.31;78.25;96769.59;4111365;28;21387;-85
2022/04/23 00:29:09;;;;;;;16.97;15.17;;;;;;;12.24;77.64;96772.00;4129889;28;20631;-83
2022/04/23 00:31:13;;;;;;;17.60;15.03;;;;;;;12.23;78.15;96772.13;4126160;28;20627;-82
2022/04/23 00:33:17;;;;;;;17.40;14.80;;;;;;;12.19;78.66;96768.16;4113719;28;21238;-83
2022/04/23 00:35:20;;;;;;;18.07;16.13;;;;;;;12.14;78.37;96765.19;4114066;28;20677;-83
2022/04/23 00:37:26;;;;;;;17.73;15.20;;;;;;;12.12;77.23;96767.13;4112882;28;20609;-83
2022/04/23 00:39:30;;;;;;;18.73;16.27;;;;;;;12.13;79.00;96767.94;4124946;28;20625;-82
2022/04/23 00:41:46;;;;;;;16.07;14.37;;;;;;;12.12;79.16;96768.91;4110476;28;20671;-83
2022/04/23 00:43:50;;;;;;;16.43;13.57;;;;;;;12.06;77.68;96778.16;4128242;28;20678;-83
2022/04/23 00:45:53;;;;;;;17.17;14.23;;;;;;;12.06;79.75;96783.38;4112331;28;20626;-83
2022/04/23 00:47:56;;;;;;;17.30;13.73;;;;;;;12.05;79.59;96781.72;4117849;28;20653;-82
2022/04/23 00:50:01;;;;;;;16.00;14.30;;;;;;;12.06;78.83;96782.56;4126791;28;21009;-83
2022/04/23 00:52:05;;;;;;;18.30;14.73;;;;;;;12.05;78.80;96779.13;4128084;28;20625;-83
2022/04/23 00:54:10;;;;;;;14.83;13.10;;;;;;;12.04;79.76;96780.09;4114479;28;20659;-83
2022/04/23 00:56:15;;;;;;;14.87;12.93;;;;;;;12.06;79.13;96786.00;4114375;28;20687;-83
2022/04/23 00:58:18;;;;;;;15.17;13.53;;;;;;;12.06;78.74;96779.97;4128981;28;20640;-83
2022/04/23 01:00:25;;;;;;;16.37;14.50;;;;;;;12.03;78.28;96783.69;4112490;28;20638;-83
2022/04/23 01:02:28;;;;;;;15.33;12.73;;;;;;;11.98;79.73;96785.91;4125452;28;20632;-83
2022/04/23 01:04:34;;;;;;;14.20;12.70;;;;;;;11.91;78.97;96784.84;4129418;28;20639;-83
2022/04/23 01:06:38;;;;;;;15.60;13.90;;;;;;;11.91;79.28;96789.25;4126633;28;20660;-83
2022/04/23 01:08:42;;;;;;;17.87;13.33;;;;;;;11.89;80.43;96781.56;4111843;28;20670;-83
2022/04/23 01:10:45;;;;;;;15.77;12.80;;;;;;;11.90;79.67;96788.41;4113742;28;21247;-82
2022/04/23 01:12:50;;;;;;;17.53;14.57;;;;;;;11.86;80.33;96781.84;4110652;28;20627;-82
2022/04/23 01:14:57;;;;;;;17.20;14.00;;;;;;;11.84;79.12;96786.38;4112693;28;20633;-83
2022/04/23 01:17:00;;;;;;;16.80;13.80;;;;;;;11.85;79.58;96787.22;4128468;28;20972;-82
2022/04/23 01:19:04;;;;;;;14.97;13.37;;;;;;;11.86;79.86;96783.59;4111442;28;20673;-82
2022/04/23 01:21:10;;;;;;;15.27;13.60;;;;;;;11.85;79.88;96789.81;4128155;28;21063;-82
2022/04/23 01:23:14;;;;;;;14.97;13.37;;;;;;;11.81;79.99;96784.03;4124391;28;20635;-82
2022/04/23 01:25:17;;;;;;;17.10;13.47;;;;;;;11.80;80.78;96785.03;4126393;28;20663;-82
2022/04/23 01:27:22;;;;;;;17.50;14.90;;;;;;;11.82;80.11;96782.28;4127022;28;20726;-82
2022/04/23 01:29:25;;;;;;;17.23;14.00;;;;;;;11.83;79.22;96776.91;4127581;28;20656;-82
2022/04/23 01:31:29;;;;;;;13.80;12.30;;;;;;;11.82;80.71;96779.66;4113196;28;20628;-83
2022/04/23 01:33:34;;;;;;;15.50;13.03;;;;;;;11.81;79.77;96773.59;4113468;28;20664;-82
2022/04/23 01:35:40;;;;;;;15.07;13.53;;;;;;;11.79;79.29;96765.09;4111111;28;21223;-82
2022/04/23 01:37:44;;;;;;;14.03;12.53;;;;;;;11.75;80.73;96769.94;4112847;28;21535;-83
2022/04/23 01:39:51;;;;;;;13.67;12.27;;;;;;;11.73;81.01;96775.31;4110461;28;20607;-83
2022/04/23 01:41:56;;;;;;;13.90;11.77;;;;;;;11.67;80.27;96767.22;4110575;28;20629;-82
2022/04/23 01:43:59;;;;;;;13.70;12.00;;;;;;;11.63;81.85;96768.47;4127203;28;20623;-83
2022/04/23 01:46:02;;;;;;;14.93;12.93;;;;;;;11.60;81.52;96771.38;4125746;28;21197;-82
2022/04/23 01:48:06;;;;;;;14.23;12.70;;;;;;;11.59;82.14;96770.56;4112596;28;20697;-83
2022/04/23 01:50:10;;;;;;;14.90;12.60;;;;;;;11.58;81.92;96760.25;4113268;28;20745;-82
2022/04/23 01:52:13;;;;;;;13.97;12.47;;;;;;;11.59;82.34;96764.47;4112776;28;20679;-82
2022/04/23 01:54:18;;;;;;;14.67;13.10;;;;;;;11.58;82.03;96761.06;4127948;28;20659;-82
2022/04/23 01:56:21;;;;;;;13.90;12.40;;;;;;;11.58;82.40;96761.06;4112463;28;20624;-82
2022/04/23 01:58:25;;;;;;;14.07;12.57;;;;;;;11.58;82.84;96762.88;4110774;28;20640;-82
2022/04/23 02:00:29;;;;;;;14.67;12.63;;;;;;;11.56;82.14;96770.00;4128232;28;20651;-84
2022/04/23 02:02:33;;;;;;;14.47;13.00;;;;;;;11.48;83.72;96773.31;4128038;28;20646;-83
2022/04/23 02:04:36;;;;;;;14.30;12.80;;;;;;;11.45;83.35;96759.69;4111126;28;21237;-82
2022/04/23 02:06:40;;;;;;;14.20;12.67;;;;;;;11.43;83.08;96757.22;4111753;28;20643;-83
2022/04/23 02:08:43;;;;;;;13.70;12.03;;;;;;;11.38;82.71;96750.78;4110480;28;20649;-82
2022/04/23 02:10:48;;;;;;;13.93;12.50;;;;;;;11.39;83.12;96745.41;4109402;28;20628;-82
2022/04/23 02:12:53;;;;;;;13.07;11.77;;;;;;;11.38;82.16;96746.41;4126414;28;20591;-82
2022/04/23 02:14:57;;;;;;;13.83;12.10;;;;;;;11.37;83.40;96749.97;4110114;28;20624;-82
2022/04/23 02:17:01;;;;;;;14.13;12.53;;;;;;;11.31;82.94;96745.31;4112139;28;20787;-82
2022/04/23 02:19:04;;;;;;;13.73;12.00;;;;;;;11.25;84.08;96750.28;4097606;28;20632;-82
2022/04/23 02:21:07;;;;;;;13.50;12.10;;;;;;;11.22;84.48;96752.38;4111706;28;20723;-83
2022/04/23 02:23:11;;;;;;;13.77;12.27;;;;;;;11.17;84.22;96751.94;4112648;28;21089;-82
2022/04/23 02:25:16;;;;;;;14.57;11.77;;;;;;;11.16;83.82;96758.97;4110818;28;21112;-80
2022/04/23 02:27:20;;;;;;;13.20;11.37;;;;;;;11.15;84.21;96754.69;4130700;28;20721;-82
2022/04/23 02:29:24;;;;;;;12.97;11.40;;;;;;;11.13;83.69;96748.00;4113900;28;20635;-82
2022/04/23 02:31:27;;;;;;;12.90;11.53;;;;;;;11.08;83.89;96750.19;4111099;28;20628;-80
2022/04/23 02:33:32;;;;;;;12.97;11.57;;;;;;;11.02;85.08;96762.03;4111407;28;20619;-83
2022/04/23 02:35:41;;;;;;;13.60;11.83;;;;;;;10.97;84.58;96758.97;4111219;28;20639;-84
2022/04/23 02:37:45;;;;;;;13.17;11.60;;;;;;;10.92;85.28;96755.97;4127592;28;20626;-83
2022/04/23 02:39:49;;;;;;;13.07;11.50;;;;;;;10.91;85.57;96756.94;4112662;28;20616;-82
2022/04/23 02:41:52;;;;;;;15.87;11.77;;;;;;;10.93;85.07;96757.63;4113693;28;20641;-82
2022/04/23 02:43:59;;;;;;;13.30;11.83;;;;;;;10.90;85.04;96760.53;4113327;28;21218;-82
2022/04/23 02:46:02;;;;;;;14.80;12.53;;;;;;;10.87;84.73;96758.19;4109574;28;21196;-83
2022/04/23 02:48:06;;;;;;;14.10;12.60;;;;;;;10.85;84.91;96760.13;4113224;28;20643;-83
2022/04/23 02:50:10;;;;;;;13.97;12.00;;;;;;;10.87;85.22;96754.78;4107598;28;20694;-83
2022/04/23 02:52:14;;;;;;;13.87;12.37;;;;;;;10.90;84.29;96757.91;4111924;28;20632;-83
2022/04/23 02:54:18;;;;;;;14.63;12.80;;;;;;;10.90;84.29;96759.72;4110322;28;20663;-82
2022/04/23 02:56:21;;;;;;;17.20;12.27;;;;;;;10.91;84.85;96759.53;4112188;28;20627;-83
2022/04/23 02:58:26;;;;;;;14.20;12.47;;;;;;;10.94;83.92;96768.88;4108669;28;21008;-82
2022/04/23 03:00:31;;;;;;;14.67;12.87;;;;;;;10.97;84.53;96768.59;4112243;28;20651;-83
2022/04/23 03:02:36;;;;;;;13.87;12.37;;;;;;;10.94;84.85;96774.91;4124476;28;20707;-83
2022/04/23 03:04:40;;;;;;;14.67;12.47;;;;;;;10.97;83.68;96768.59;4116396;28;21123;-83
2022/04/23 03:06:45;;;;;;;16.53;13.17;;;;;;;10.93;83.51;96769.84;4110853;28;21141;-83
2022/04/23 03:08:48;;;;;;;15.83;13.47;;;;;;;10.85;84.27;96762.72;4112182;28;20657;-83
2022/04/23 03:10:52;;;;;;;13.93;12.20;;;;;;;10.87;83.89;96776.44;4128956;28;20957;-83
2022/04/23 03:12:57;;;;;;;14.93;12.50;;;;;;;10.82;84.23;96776.06;4114837;28;20842;-83
2022/04/23 03:15:00;;;;;;;14.57;12.63;;;;;;;10.74;83.96;96771.66;4114624;28;20662;-82
2022/04/23 03:17:05;;;;;;;15.80;13.40;;;;;;;10.68;84.88;96777.44;4114893;28;20727;-83
2022/04/23 03:19:08;;;;;;;16.00;13.60;;;;;;;10.62;84.73;96767.53;4114436;28;20724;-83
2022/04/23 03:21:12;;;;;;;16.90;14.30;;;;;;;10.57;84.69;96765.34;4130311;28;20855;-82
2022/04/23 03:23:15;;;;;;;16.40;13.43;;;;;;;10.59;84.92;96766.03;4110226;28;20734;-82
2022/04/23 03:25:18;;;;;;;16.53;13.70;;;;;;;10.44;85.10;96761.38;4113058;28;20982;-83
2022/04/23 03:27:21;;;;;;;14.80;13.17;;;;;;;10.38;85.98;96769.72;4114912;28;20751;-83
2022/04/23 03:29:25;;;;;;;17.87;15.33;;;;;;;10.32;86.34;96766.84;4129052;28;20696;-82
2022/04/23 03:31:28;;;;;;;16.50;13.77;;;;;;;10.30;85.73;96777.41;4127577;28;20633;-83
2022/04/23 03:33:35;;;;;;;17.90;14.27;;;;;;;10.28;86.73;96771.47;4114427;28;20731;-83
2022/04/23 03:35:39;;;;;;;16.83;14.53;;;;;;;10.21;86.62;96773.00;4114091;28;20641;-84
2022/04/23 03:37:42;;;;;;;16.00;13.13;;;;;;;10.20;86.67;96786.16;4113086;28;20744;-83
2022/04/23 03:39:46;;;;;;;17.00;14.70;;;;;;;10.11;87.13;96781.75;4111268;28;21280;-83
2022/04/23 03:41:49;;;;;;;17.13;14.50;;;;;;;10.09;87.03;96776.69;4113317;28;21366;-83
2022/04/23 03:43:53;;;;;;;17.00;14.30;;;;;;;10.05;86.75;96777.88;4114907;28;20659;-83
2022/04/23 03:45:56;;;;;;;17.47;14.87;;;;;;;10.03;87.35;96776.41;4133710;28;20622;-83
2022/04/23 03:48:01;;;;;;;16.70;13.83;;;;;;;10.00;87.52;96774.88;4118622;28;21276;-83
2022/04/23 03:50:10;;;;;;;16.40;13.43;;;;;;;9.99;87.07;96781.03;4115210;28;20719;-83
2022/04/23 03:52:18;;;;;;;15.07;13.13;;;;;;;9.96;88.07;96776.09;4128822;28;20623;-84
2022/04/23 03:54:24;;;;;;;15.17;13.37;;;;;;;9.92;88.19;96774.69;4125630;28;20656;-83
2022/04/23 03:56:27;;;;;;;16.43;13.83;;;;;;;9.91;88.50;96767.81;4112027;28;20814;-83
2022/04/23 03:58:30;;;;;;;17.83;14.60;;;;;;;9.86;88.31;96772.63;4128757;28;20686;-83
2022/04/23 04:00:34;;;;;;;15.77;13.70;;;;;;;9.81;88.60;96779.16;4111759;28;20666;-83
2022/04/23 04:02:37;;;;;;;17.50;13.77;;;;;;;9.78;88.46;96770.81;4102403;28;20628;-83
2022/04/23 04:04:42;;;;;;;16.00;13.87;;;;;;;9.78;88.54;96766.41;4112372;28;20635;-83
2022/04/23 04:06:47;;;;;;;13.93;12.40;;;;;;;9.73;88.22;96776.41;4129392;28;20694;-83
2022/04/23 04:08:51;;;;;;;16.70;13.00;;;;;;;9.67;89.80;96776.13;4127434;28;20652;-83
2022/04/23 04:10:54;;;;;;;17.60;13.67;;;;;;;9.68;89.51;96769.94;4115172;28;20621;-83
2022/04/23 04:12:57;;;;;;;17.50;13.97;;;;;;;9.72;89.24;96771.34;4129169;28;20659;-83
2022/04/23 04:15:07;;;;;;;16.30;13.40;;;;;;;9.72;89.44;96763.53;4111761;28;20626;-83
2022/04/23 04:17:11;;;;;;;16.50;13.60;;;;;;;9.64;89.16;96761.56;4113856;28;20633;-83
2022/04/23 04:19:18;;;;;;;16.40;13.10;;;;;;;9.64;89.89;96758.97;4113824;28;20613;-83
2022/04/23 04:21:23;;;;;;;16.70;13.80;;;;;;;9.62;89.39;96763.50;4113286;28;21251;-83
2022/04/23 04:23:28;;;;;;;16.20;13.97;;;;;;;9.60;89.87;96759.38;4097248;29;20630;-83
2022/04/23 04:25:31;;;;;;;16.37;13.87;;;;;;;9.66;89.45;96767.47;4127560;28;21197;-83
2022/04/23 04:27:35;;;;;;;16.57;13.93;;;;;;;9.71;89.62;96761.88;4114783;28;21460;-83
2022/04/23 04:29:38;;;;;;;16.00;13.13;;;;;;;9.74;89.79;96762.44;4115136;28;20663;-83
2022/04/23 04:31:51;;;;;;;17.03;14.27;;;;;;;9.76;89.13;96755.31;4112937;28;21289;-83
2022/04/23 04:33:54;;;;;;;16.00;13.70;;;;;;;9.79;89.41;96755.06;4114698;28;21206;-83
2022/04/23 04:36:04;;;;;;;16.77;13.37;;;;;;;9.84;89.20;96757.25;4125194;28;20650;-83
2022/04/23 04:38:07;;;;;;;14.60;13.00;;;;;;;9.88;88.55;96762.06;4111642;28;20625;-83
2022/04/23 04:40:12;;;;;;;15.80;13.10;;;;;;;9.82;88.54;96749.59;4128361;28;21061;-83
2022/04/23 04:42:19;;;;;;;14.47;12.73;;;;;;;9.83;89.32;96753.81;4126231;28;20645;-83
2022/04/23 04:44:22;;;;;;;18.83;13.50;;;;;;;9.87;89.14;96753.41;4111269;28;20727;-83
2022/04/23 04:46:28;;;;;;;16.50;12.50;;;;;;;9.87;89.06;96756.00;4130606;28;21237;-83
2022/04/23 04:48:31;;;;;;;16.30;13.33;;;;;;;9.92;89.06;96753.84;4128308;28;20627;-83
2022/04/23 04:50:58;;;;;;;13.27;11.67;;;;;;;9.96;88.97;96757.84;4129471;28;20628;-83
2022/04/23 04:53:02;;;;;;;13.30;11.00;;;;;;;10.00;88.33;96758.44;4129702;28;20704;-83
2022/04/23 04:55:06;;;;;;;15.00;13.13;;;;;;;10.04;88.62;96762.41;4111222;28;21223;-83
2022/04/23 04:57:13;;;;;;;14.60;12.20;;;;;;;10.11;88.58;96760.91;4128236;28;21155;-83
2022/04/23 04:59:16;;;;;;;13.90;11.73;;;;;;;10.17;87.91;96755.97;4124361;28;20616;-83
2022/04/23 05:01:20;;;;;;;14.57;11.50;;;;;;;10.24;88.14;96764.06;4112975;28;20669;-82
2022/04/23 05:03:25;;;;;;;13.23;11.63;;;;;;;10.28;88.00;96762.84;4111421;28;20644;-83
2022/04/23 05:05:29;;;;;;;15.13;11.77;;;;;;;10.32;87.84;96767.66;4125111;28;21223;-83
2022/04/23 05:07:32;;;;;;;15.83;12.87;;;;;;;10.36;87.68;96767.25;4101909;28;20640;-83
2022/04/23 05:09:35;;;;;;;15.97;12.70;;;;;;;10.40;87.53;96765.19;4128645;28;20651;-84
2022/04/23 05:11:39;;;;;;;14.80;11.77;;;;;;;10.46;87.65;96772.47;4111767;28;20961;-83
2022/04/23 05:13:44;;;;;;;18.43;12.60;;;;;;;10.52;87.29;96767.53;4114491;28;21212;-83
2022/04/23 05:15:48;;;;;;;12.90;11.13;;;;;;;10.58;87.26;96764.38;4129103;28;20625;-83
2022/04/23 05:17:52;;;;;;;15.47;12.37;;;;;;;10.68;86.75;96773.03;4109800;28;20704;-83
2022/04/23 05:19:55;;;;;;;15.00;12.80;;;;;;;10.88;86.52;96770.28;4110155;28;20666;-83
2022/04/23 05:21:58;;;;;;;16.70;12.77;;;;;;;11.14;85.99;96775.72;4125885;28;20637;-83
2022/04/23 05:24:01;;;;;;;16.60;13.37;;;;;;;11.37;85.10;96783.09;4111200;28;20741;-83
2022/04/23 05:26:05;;;;;;;15.43;12.17;;;;;;;11.59;83.32;96777.53;4110990;28;20671;-83
2022/04/23 05:28:09;;;;;;;14.60;12.00;;;;;;;11.81;82.13;96778.00;4126870;28;20644;-83
2022/04/23 05:30:13;;;;;;;14.80;12.37;;;;;;;11.97;81.82;96781.63;4113414;28;20666;-83
2022/04/23 05:32:17;;;;;;;14.40;12.07;;;;;;;12.14;82.63;96785.28;4112662;28;20630;-83
2022/04/23 05:34:20;;;;;;;17.73;14.87;;;;;;;12.18;80.90;96786.59;4113822;28;20646;-83
2022/04/23 05:36:23;;;;;;;15.70;12.67;;;;;;;12.11;81.16;96788.19;4111194;28;20726;-83
2022/04/23 05:38:27;;;;;;;16.00;13.50;;;;;;;12.13;82.39;96794.88;4119895;28;20642;-83
2022/04/23 05:40:30;;;;;;;14.47;12.87;;;;;;;12.14;82.21;96790.50;4110746;28;21213;-83
2022/04/23 05:42:33;;;;;;;14.10;12.47;;;;;;;12.13;82.16;96800.09;4112842;28;21057;-83
2022/04/23 05:44:37;;;;;;;14.03;12.53;;;;;;;12.11;80.77;96806.47;4113950;28;20672;-83
2022/04/23 05:46:42;;;;;;;15.83;12.47;;;;;;;12.02;82.11;96797.69;4112884;28;20646;-83
2022/04/23 05:48:45;;;;;;;15.70;12.70;;;;;;;11.98;82.16;96798.97;4103308;28;20605;-83
2022/04/23 05:50:49;;;;;;;13.80;12.20;;;;;;;11.96;81.42;96798.28;4112214;28;21485;-83
2022/04/23 05:52:52;;;;;;;14.27;12.60;;;;;;;11.98;82.02;96809.44;4112982;28;20629;-83
2022/04/23 05:54:55;;;;;;;14.87;12.17;;;;;;;12.01;82.64;96803.91;4128361;28;20994;-83
2022/04/23 05:56:58;;;;;;;14.70;12.60;;;;;;;12.03;81.74;96815.03;4112286;28;20620;-83
2022/04/23 05:59:02;;;;;;;12.30;10.63;;;;;;;12.07;81.62;96816.41;4128421;28;20623;-83
2022/04/23 06:01:05;;;;;;;12.73;10.10;;;;;;;12.06;80.86;96827.00;4113438;28;20645;-83
2022/04/23 06:03:11;;;;;;;13.23;11.20;;;;;;;12.11;81.17;96828.19;4128021;28;20631;-83
2022/04/23 06:05:14;;;;;;;11.70;10.13;;;;;;;12.14;81.46;96822.69;4129201;28;20670;-83
2022/04/23 06:07:18;;;;;;;11.10;9.97;;;;;;;12.15;81.63;96824.34;4126190;28;20673;-83
2022/04/23 06:09:21;;;;;;;10.20;9.10;;;;;;;12.14;80.98;96821.88;4110864;28;20656;-83
2022/04/23 06:11:25;;;;;;;9.93;8.60;;;;;;;12.13;81.99;96823.63;4124356;28;20707;-83
2022/04/23 06:13:28;;;;;;;10.93;9.50;;;;;;;12.16;81.82;96830.38;4125948;28;20623;-83
2022/04/23 06:15:31;;;;;;;9.30;7.90;;;;;;;12.16;81.47;96825.16;4113364;28;20621;-83
2022/04/23 06:17:35;;;;;;;10.43;8.80;;;;;;;12.14;80.35;96833.13;4112516;28;21171;-82
2022/04/23 06:19:40;;;;;;;12.70;11.40;;;;;;;12.16;81.08;96836.41;4111826;28;20725;-83
2022/04/23 06:21:43;;;;;;;10.30;8.47;;;;;;;12.21;81.52;96835.97;4112679;28;20628;-83
2022/04/23 06:23:46;;;;;;;9.10;7.73;;;;;;;12.27;80.59;96838.84;4125918;28;20634;-83
2022/04/23 06:25:49;;;;;;;8.50;7.43;;;;;;;12.21;80.74;96835.97;4127331;28;20677;-83
2022/04/23 06:27:53;;;;;;;8.50;7.17;;;;;;;12.10;79.31;96836.19;4110990;28;20651;-83
2022/04/23 06:29:57;;;;;;;7.63;6.30;;;;;;;12.03;79.39;96843.78;4124973;28;20665;-83
2022/04/23 06:32:00;;;;;;;7.83;7.03;;;;;;;12.03;79.97;96842.97;4109768;28;20640;-83
2022/04/23 06:34:03;;;;;;;7.73;6.93;;;;;;;12.09;81.17;96834.53;4127599;28;20638;-83
2022/04/23 06:36:10;;;;;;;8.20;6.90;;;;;;;12.11;80.92;96843.06;4117459;28;20659;-83
2022/04/23 06:38:13;;;;;;;7.90;7.10;;;;;;;12.09;79.69;96840.59;4117268;28;20625;-83
2022/04/23 06:40:18;;;;;;;8.43;7.43;;;;;;;12.05;79.89;96839.22;4131970;28;20618;-83
2022/04/23 06:42:21;;;;;;;7.17;6.40;;;;;;;12.07;79.85;96839.06;4127978;28;20635;-83
2022/04/23 06:44:25;;;;;;;8.07;7.00;;;;;;;12.11;80.56;96846.50;4130545;28;20687;-83
2022/04/23 06:46:28;;;;;;;7.57;6.40;;;;;;;12.16;80.89;96854.72;4128224;28;20624;-83
2022/04/23 06:48:32;;;;;;;7.40;6.60;;;;;;;12.17;80.22;96851.13;4115841;28;20683;-83
2022/04/23 06:50:36;;;;;;;8.83;7.07;;;;;;;12.23;80.65;96847.13;4129240;28;20682;-83
2022/04/23 06:52:41;;;;;;;8.07;7.20;;;;;;;12.28;81.87;96841.31;4112823;28;21080;-83
2022/04/23 06:54:44;;;;;;;6.60;5.90;;;;;;;12.30;80.61;96847.22;4114297;28;20644;-83
2022/04/23 06:56:48;;;;;;;8.23;6.77;;;;;;;12.31;80.42;96848.03;4115481;28;20705;-83
2022/04/23 06:58:51;;;;;;;7.47;6.60;;;;;;;12.37;81.23;96845.69;4131036;28;21061;-83
2022/04/23 07:00:54;;;;;;;7.20;6.50;;;;;;;12.42;79.51;96853.09;4111706;28;21075;-82
2022/04/23 07:02:57;;;;;;;6.80;6.10;;;;;;;12.44;79.85;96845.91;4131421;28;21244;-83
2022/04/23 07:05:00;;;;;;;8.60;6.63;;;;;;;12.48;79.48;96858.53;4112132;28;20644;-83
2022/04/23 07:07:05;;;;;;;7.33;6.63;;;;;;;12.44;79.67;96849.34;4111617;28;20732;-83
2022/04/23 07:09:10;;;;;;;7.50;6.50;;;;;;;12.38;78.87;96859.56;4115400;28;20665;-83
2022/04/23 07:11:14;;;;;;;7.07;6.37;;;;;;;12.41;80.38;96854.84;4115172;28;20656;-82
2022/04/23 07:13:17;;;;;;;8.43;6.90;;;;;;;12.45;78.83;96848.38;4114321;28;20730;-83
2022/04/23 07:15:21;;;;;;;7.30;6.27;;;;;;;12.55;79.39;96850.94;4115344;28;20624;-83
2022/04/23 07:17:25;;;;;;;6.60;5.90;;;;;;;12.62;79.76;96850.19;4129935;28;20722;-82
2022/04/23 07:19:29;;;;;;;7.20;6.23;;;;;;;12.71;80.00;96855.34;4113916;28;20664;-83
2022/04/23 07:21:33;;;;;;;8.50;7.23;;;;;;;12.73;79.57;96863.91;4127934;28;20781;-83
2022/04/23 07:25:58;;;;;;;7.97;6.50;;;;;;;12.70;78.15;96860.72;4127725;28;21007;-83
2022/04/23 07:28:02;;;;;;;8.17;7.07;;;;;;;12.75;78.92;96859.34;4113278;28;20636;-83
2022/04/23 07:30:07;;;;;;;7.80;6.70;;;;;;;12.85;78.67;96854.91;4113855;28;20737;-83
2022/04/23 07:32:10;;;;;;;7.80;7.00;;;;;;;12.88;79.94;96856.38;4113837;28;21228;-83
2022/04/23 07:38:54;;;;;;;7.90;7.10;;;;;;;12.93;77.17;96861.97;4115168;28;20686;-83
2022/04/23 07:41:02;;;;;;;7.70;6.90;;;;;;;12.98;78.55;96846.66;4113328;28;20649;-83
2022/04/23 07:43:05;;;;;;;7.90;6.60;;;;;;;13.13;79.52;96846.00;4113045;28;21370;-83
2022/04/23 07:45:10;;;;;;;10.20;6.50;;;;;;;13.30;79.50;96853.00;4114512;28;20628;-83
2022/04/23 07:47:13;;;;;;;7.53;6.60;;;;;;;13.36;76.87;96850.59;4111303;28;20644;-83
2022/04/23 07:49:16;;;;;;;7.23;6.40;;;;;;;13.31;77.34;96857.28;4130146;28;20642;-83
2022/04/23 07:51:20;;;;;;;7.83;6.43;;;;;;;13.37;77.57;96861.91;4113187;28;20662;-83
2022/04/23 07:53:24;;;;;;;7.90;6.80;;;;;;;13.49;76.63;96848.41;4127303;28;21379;-83
2022/04/23 07:55:30;;;;;;;8.17;6.30;;;;;;;13.54;76.69;96846.13;4110466;28;20668;-83
2022/04/23 07:57:35;;;;;;;7.60;6.60;;;;;;;13.56;75.82;96846.00;4112730;28;20651;-83
2022/04/23 07:59:42;;;;;;;10.20;7.80;;;;;;;13.52;75.38;96853.34;4113159;28;20618;-82
2022/04/23 08:01:45;;;;;;;7.73;6.93;;;;;;;13.54;76.48;96850.56;4114563;28;20687;-83
2022/04/23 08:03:48;;;;;;;8.40;6.67;;;;;;;13.57;76.27;96853.69;4111100;28;20621;-83
2022/04/23 08:05:52;;;;;;;7.50;6.70;;;;;;;13.55;74.96;96853.03;4115962;28;20680;-83
2022/04/23 08:07:55;;;;;;;8.37;7.20;;;;;;;13.64;76.01;96853.94;4114274;28;20998;-83
2022/04/23 08:09:59;;;;;;;8.50;7.40;;;;;;;13.66;75.86;96856.22;4098520;29;20728;-83
2022/04/23 08:12:02;;;;;;;8.50;7.70;;;;;;;13.63;75.58;96849.66;4127340;28;21002;-83
2022/04/23 08:14:06;;;;;;;7.10;6.10;;;;;;;13.63;73.96;96853.09;4130392;28;20624;-83
2022/04/23 08:16:10;;;;;;;7.83;7.03;;;;;;;13.68;75.22;96861.28;4113985;28;20645;-83
2022/04/23 08:18:14;;;;;;;7.70;6.90;;;;;;;13.66;74.40;96853.59;4125897;28;20641;-83
2022/04/23 08:20:17;;;;;;;7.27;6.57;;;;;;;13.67;73.75;96844.75;4114356;28;20885;-83
2022/04/23 08:22:21;;;;;;;7.37;6.67;;;;;;;13.60;73.43;96849.97;4114246;28;20980;-83
2022/04/23 08:24:24;;;;;;;7.63;6.83;;;;;;;13.63;74.06;96849.66;4129405;28;21014;-83
2022/04/23 08:26:27;;;;;;;7.67;6.87;;;;;;;13.73;74.28;96857.25;4114212;28;20680;-83
2022/04/23 08:30:52;;;;;;;9.70;7.20;;;;;;;13.90;73.68;96859.00;4113467;28;20621;-82
2022/04/23 08:33:00;;;;;;;7.87;7.07;;;;;;;13.86;73.50;96852.44;4113368;28;21259;-81
2022/04/23 08:35:05;;;;;;;8.07;7.27;;;;;;;13.69;73.34;96855.91;4112505;28;21199;-81
2022/04/23 08:37:08;;;;;;;7.73;6.93;;;;;;;13.60;74.40;96855.19;4113820;28;20629;-81
2022/04/23 08:39:11;;;;;;;7.43;6.73;;;;;;;13.55;73.90;96853.03;4128847;28;21290;-82
2022/04/23 08:41:15;;;;;;;7.50;6.80;;;;;;;13.53;74.10;96859.41;4113081;28;20644;-82
2022/04/23 08:43:18;;;;;;;8.50;6.90;;;;;;;13.52;73.85;96876.09;4114326;28;20614;-83
2022/04/23 08:45:22;;;;;;;7.90;7.13;;;;;;;13.49;74.81;96858.06;4111064;28;20613;-83
2022/04/23 08:47:27;;;;;;;8.70;7.40;;;;;;;13.46;74.74;96871.47;4111300;28;20638;-83
2022/04/23 08:49:32;;;;;;;7.13;6.43;;;;;;;13.36;74.56;96865.50;4114289;28;20645;-83
2022/04/23 08:51:37;;;;;;;7.33;6.63;;;;;;;13.36;75.58;96868.91;4114210;28;20661;-82
2022/04/23 08:53:43;;;;;;;8.10;7.10;;;;;;;13.33;74.78;96861.38;4129201;28;20707;-83
2022/04/23 08:55:47;;;;;;;10.50;8.90;;;;;;;13.32;74.30;96866.75;4100791;28;20673;-84
2022/04/23 08:57:50;;;;;;;7.60;6.83;;;;;;;13.25;74.73;96860.50;4113956;28;20645;-83
2022/04/23 08:59:56;;;;;;;7.67;6.50;;;;;;;13.20;75.51;96865.38;4113877;28;21269;-83
2022/04/23 09:02:00;;;;;;;7.83;7.03;;;;;;;13.21;75.91;96859.97;4108584;28;20647;-83
2022/04/23 09:04:07;;;;;;;7.50;6.10;;;;;;;13.31;75.92;96859.88;4124915;28;20637;-83
2022/04/23 09:06:10;;;;;;;7.07;6.37;;;;;;;13.36;76.11;96857.63;4114069;28;20699;-83
2022/04/23 09:08:14;;;;;;;7.80;7.00;;;;;;;13.42;75.32;96851.78;4126892;28;20619;-83
2022/04/23 09:10:17;;;;;;;7.10;6.40;;;;;;;13.50;75.85;96847.44;4112022;28;20619;-83
2022/04/23 09:12:24;;;;;;;8.43;7.17;;;;;;;13.56;74.77;96849.44;4111590;28;20656;-83
2022/04/23 09:14:29;;;;;;;7.87;7.00;;;;;;;13.56;74.44;96854.69;4129927;28;20624;-83
2022/04/23 09:24:10;;;;;;;7.03;6.10;;;;;;;13.74;74.69;96843.19;4129074;28;20959;-83
2022/04/23 09:26:17;;;;;;;6.90;6.20;;;;;;;13.71;74.55;96851.34;4127533;28;20624;-82
2022/04/23 09:28:21;;;;;;;7.37;6.67;;;;;;;13.74;73.46;96840.56;4129002;28;20957;-83
2022/04/23 09:30:27;;;;;;;8.60;7.70;;;;;;;13.69;73.78;96862.94;4112100;28;20622;-82
2022/04/23 09:32:30;;;;;;;8.57;7.67;;;;;;;13.62;72.93;96848.00;4129432;28;21078;-84
2022/04/23 09:34:35;;;;;;;8.07;7.27;;;;;;;13.68;74.04;96858.69;4125841;28;20631;-83
2022/04/23 09:36:47;;;;;;;9.40;7.47;;;;;;;13.75;74.07;96841.38;4112348;28;20651;-83
2022/04/23 09:39:00;;;;;;;7.63;6.70;;;;;;;13.81;73.47;96852.06;4094785;29;20667;-84
2022/04/23 09:41:16;;;;;;;7.83;7.03;;;;;;;13.83;73.37;96850.13;4127559;28;20628;-83
2022/04/23 09:43:26;;;;;;;8.33;6.50;;;;;;;13.82;74.27;96853.72;4114792;28;20621;-83
2022/04/23 09:45:31;;;;;;;8.90;6.77;;;;;;;13.74;73.78;96850.19;4127708;28;20711;-84
2022/04/23 09:47:35;;;;;;;7.87;6.77;;;;;;;13.80;74.05;96849.59;4127149;28;20668;-83
2022/04/23 09:49:40;;;;;;;10.90;7.63;;;;;;;13.81;73.37;96846.81;4111630;28;20637;-83
2022/04/23 09:52:00;;;;;;;7.60;6.83;;;;;;;13.83;73.30;96851.91;4108393;28;20636;-83
2022/04/23 09:54:04;;;;;;;7.70;6.90;;;;;;;13.84;73.83;96846.50;4125886;28;20766;-83